Martinsville, Missouri
Current Conditions -  °F | °C
As of 5:53 PM on Sunday 25 Jan 2015 (Local Time) from KLWD Reporting Station
Overcast Overcast  
Wind Chill: 24°   Ceiling: 1700
Heat Index: 33°   Visibility: 10mi
Dew Point: 28°   Wind: 13mph
Humidity: 82%   Direction: 10°N
Pressure: 30.03"   Gusts: NA
Location:  40.34°N, 94.16°W
Report Text: KLWD 252353Z AUTO 01011KT 10SM OVC017 01/M02 A3003 RMK AO2 SLP179 60000 T00061022 10017 20006 51022
Loading
Personal Weather Stations






























Interactive Weather Map New forecast layout! Learn more

10-Day Weather Forecast

Advertisements
Track Severe Weather on mobile